SBI5335 UNNT-USMU
Flight info
| Callsign | SBI5335 |
|---|---|
| Flight time | 2h 32m |
| Altitude | 38000 |
| Route | DIMI1K DIMID R484 SOREB W143 NOLBI/K0882F390 T660 TARSA/K0883F400 W128 LUNOD LUNO5E |
| Aircraft | E170/M-VGDW/C |
Departure
| Time | 2026-04-30 08:24 |
|---|---|
| Airport | Novosibirsk Tolmachevo Airport (UNNT) |
Arrival
| Time | 2026-04-30 10:57 |
|---|---|
| Airport | Novy Urengoy Airport (USMU) |
| Time | Latitude | Longitude | Altitude | Speed | Heading |
|---|---|---|---|---|---|
| 2026-04-30 08:03 | 55.00970 | 82.65767 | 354 ft | 0 kts | 173° |
| 2026-04-30 08:20 | 55.00963 | 82.65768 | 354 ft | 2 kts | 173° |
| 2026-04-30 08:21 | 55.00937 | 82.65786 | 355 ft | 5 kts | 133° |
| 2026-04-30 08:21 | 55.00937 | 82.65880 | 355 ft | 10 kts | 84° |
| 2026-04-30 08:21 | 55.00950 | 82.66036 | 355 ft | 15 kts | 82° |
| 2026-04-30 08:21 | 55.00992 | 82.66244 | 354 ft | 20 kts | 65° |
| 2026-04-30 08:22 | 55.01045 | 82.66484 | 353 ft | 21 kts | 70° |
| 2026-04-30 08:22 | 55.01140 | 82.66650 | 351 ft | 21 kts | 354° |
| 2026-04-30 08:22 | 55.01227 | 82.66628 | 350 ft | 8 kts | 353° |
| 2026-04-30 08:22 | 55.01290 | 82.66615 | 350 ft | 9 kts | 352° |
| 2026-04-30 08:23 | 55.01359 | 82.66589 | 350 ft | 10 kts | 329° |
| 2026-04-30 08:23 | 55.01373 | 82.66475 | 350 ft | 10 kts | 261° |
| 2026-04-30 08:23 | 55.01333 | 82.66032 | 351 ft | 71 kts | 261° |
| 2026-04-30 08:23 | 55.01221 | 82.64818 | 350 ft | 128 kts | 261° |
| 2026-04-30 08:24 | 55.01079 | 82.63122 | 540 ft | 149 kts | 259° |
| 2026-04-30 08:24 | 55.00905 | 82.61226 | 887 ft | 166 kts | 258° |
| 2026-04-30 08:24 | 55.00689 | 82.58945 | 908 ft | 213 kts | 259° |
| 2026-04-30 08:24 | 55.00467 | 82.56202 | 1161 ft | 249 kts | 269° |
| 2026-04-30 08:25 | 55.00996 | 82.53183 | 1491 ft | 278 kts | 302° |
| 2026-04-30 08:25 | 55.02047 | 82.50485 | 2286 ft | 269 kts | 313° |
| 2026-04-30 08:25 | 55.03488 | 82.48448 | 3111 ft | 269 kts | 321° |
| 2026-04-30 08:25 | 55.04906 | 82.46352 | 3917 ft | 269 kts | 317° |
| 2026-04-30 08:26 | 55.06276 | 82.44156 | 4724 ft | 270 kts | 316° |
| 2026-04-30 08:26 | 55.07610 | 82.41934 | 5515 ft | 271 kts | 315° |
| 2026-04-30 08:26 | 55.08989 | 82.39588 | 6113 ft | 281 kts | 314° |
| 2026-04-30 08:26 | 55.10376 | 82.37206 | 6755 ft | 289 kts | 314° |
| 2026-04-30 08:27 | 55.11819 | 82.34716 | 7500 ft | 292 kts | 313° |
| 2026-04-30 08:27 | 55.13253 | 82.32232 | 8285 ft | 294 kts | 313° |
| 2026-04-30 08:27 | 55.14702 | 82.29718 | 9084 ft | 296 kts | 313° |
| 2026-04-30 08:27 | 55.16141 | 82.27217 | 9854 ft | 298 kts | 313° |
| 2026-04-30 08:28 | 55.17602 | 82.24676 | 10619 ft | 301 kts | 313° |
| 2026-04-30 08:28 | 55.19081 | 82.22099 | 11383 ft | 303 kts | 313° |
| 2026-04-30 08:28 | 55.20572 | 82.19511 | 12128 ft | 307 kts | 316° |
| 2026-04-30 08:28 | 55.22441 | 82.17715 | 12839 ft | 316 kts | 344° |
| 2026-04-30 08:29 | 55.24632 | 82.17222 | 13621 ft | 320 kts | 351° |
| 2026-04-30 08:29 | 55.26848 | 82.16847 | 14373 ft | 323 kts | 351° |
| 2026-04-30 08:29 | 55.29067 | 82.16479 | 15083 ft | 327 kts | 351° |
| 2026-04-30 08:29 | 55.31347 | 82.16103 | 15780 ft | 331 kts | 351° |
| 2026-04-30 08:30 | 55.33651 | 82.16297 | 16420 ft | 343 kts | 13° |
| 2026-04-30 08:30 | 55.35735 | 82.18347 | 17043 ft | 356 kts | 40° |
| 2026-04-30 08:30 | 55.37415 | 82.21590 | 17709 ft | 361 kts | 46° |
| 2026-04-30 08:30 | 55.39053 | 82.24908 | 18341 ft | 364 kts | 46° |
| 2026-04-30 08:31 | 55.40848 | 82.28014 | 18926 ft | 364 kts | 32° |
| 2026-04-30 08:31 | 55.43048 | 82.30205 | 19521 ft | 363 kts | 21° |
| 2026-04-30 08:31 | 55.45351 | 82.31915 | 20134 ft | 364 kts | 17° |
| 2026-04-30 08:31 | 55.47713 | 82.33470 | 20736 ft | 366 kts | 16° |
| 2026-04-30 08:32 | 55.50109 | 82.34976 | 21300 ft | 369 kts | 15° |
| 2026-04-30 08:32 | 55.52546 | 82.36482 | 21846 ft | 372 kts | 15° |
| 2026-04-30 08:32 | 55.54978 | 82.37978 | 22374 ft | 376 kts | 15° |
| 2026-04-30 08:32 | 55.57456 | 82.39500 | 22897 ft | 379 kts | 15° |
| 2026-04-30 08:33 | 55.59925 | 82.41018 | 23415 ft | 382 kts | 15° |
| 2026-04-30 08:33 | 55.62464 | 82.42580 | 23928 ft | 385 kts | 15° |
| 2026-04-30 08:33 | 55.64991 | 82.44137 | 24455 ft | 388 kts | 14° |
| 2026-04-30 08:33 | 55.67524 | 82.45699 | 24958 ft | 390 kts | 14° |
| 2026-04-30 08:34 | 55.70087 | 82.47283 | 25481 ft | 392 kts | 14° |
| 2026-04-30 08:34 | 55.72635 | 82.48859 | 25996 ft | 393 kts | 14° |
| 2026-04-30 08:34 | 55.75235 | 82.50469 | 26511 ft | 394 kts | 14° |
| 2026-04-30 08:34 | 55.77815 | 82.52070 | 26989 ft | 396 kts | 14° |
| 2026-04-30 08:35 | 55.80385 | 82.53666 | 27443 ft | 398 kts | 14° |
| 2026-04-30 08:35 | 55.82994 | 82.55289 | 27878 ft | 400 kts | 14° |
| 2026-04-30 08:35 | 55.85630 | 82.56931 | 28294 ft | 403 kts | 14° |
| 2026-04-30 08:35 | 55.88263 | 82.58574 | 28711 ft | 405 kts | 13° |
| 2026-04-30 08:36 | 55.90936 | 82.60244 | 29145 ft | 407 kts | 13° |
| 2026-04-30 08:36 | 55.93577 | 82.61897 | 29530 ft | 409 kts | 13° |
| 2026-04-30 08:36 | 55.96265 | 82.63580 | 29943 ft | 411 kts | 13° |
| 2026-04-30 08:36 | 55.98957 | 82.65271 | 30352 ft | 412 kts | 14° |
| 2026-04-30 08:37 | 56.01668 | 82.66973 | 30713 ft | 414 kts | 14° |
| 2026-04-30 08:37 | 56.04406 | 82.68248 | 31061 ft | 409 kts | 4° |
| 2026-04-30 08:37 | 56.07213 | 82.68618 | 31373 ft | 405 kts | 354° |
| 2026-04-30 08:37 | 56.09986 | 82.68173 | 31685 ft | 403 kts | 345° |
| 2026-04-30 08:38 | 56.12688 | 82.66819 | 32014 ft | 400 kts | 335° |
| 2026-04-30 08:38 | 56.15243 | 82.64926 | 32378 ft | 401 kts | 335° |
| 2026-04-30 08:38 | 56.17803 | 82.63130 | 32693 ft | 403 kts | 336° |
| 2026-04-30 08:38 | 56.20443 | 82.61327 | 33006 ft | 406 kts | 336° |
| 2026-04-30 08:39 | 56.23090 | 82.59534 | 33308 ft | 408 kts | 336° |
| 2026-04-30 08:39 | 56.25732 | 82.57746 | 33598 ft | 410 kts | 336° |
| 2026-04-30 08:39 | 56.28400 | 82.55942 | 33897 ft | 412 kts | 336° |
| 2026-04-30 08:39 | 56.31063 | 82.54137 | 34177 ft | 415 kts | 336° |
| 2026-04-30 08:40 | 56.33776 | 82.52296 | 34421 ft | 418 kts | 336° |
| 2026-04-30 08:40 | 56.36475 | 82.50463 | 34702 ft | 420 kts | 336° |
| 2026-04-30 08:40 | 56.39202 | 82.48608 | 34942 ft | 422 kts | 336° |
| 2026-04-30 08:40 | 56.41969 | 82.46723 | 35136 ft | 424 kts | 336° |
| 2026-04-30 08:41 | 56.44690 | 82.44865 | 35339 ft | 426 kts | 336° |
| 2026-04-30 08:41 | 56.47469 | 82.42966 | 35557 ft | 427 kts | 336° |
| 2026-04-30 08:41 | 56.50224 | 82.41080 | 35742 ft | 429 kts | 336° |
| 2026-04-30 08:41 | 56.53041 | 82.39149 | 35928 ft | 430 kts | 336° |
| 2026-04-30 08:42 | 56.55793 | 82.37257 | 36092 ft | 432 kts | 336° |
| 2026-04-30 08:42 | 56.58601 | 82.35326 | 36239 ft | 434 kts | 336° |
| 2026-04-30 08:42 | 56.61406 | 82.33394 | 36409 ft | 434 kts | 335° |
| 2026-04-30 08:42 | 56.64249 | 82.31432 | 36570 ft | 436 kts | 335° |
| 2026-04-30 08:43 | 56.67049 | 82.29497 | 36713 ft | 437 kts | 335° |
| 2026-04-30 08:43 | 56.69923 | 82.27506 | 36857 ft | 439 kts | 335° |
| 2026-04-30 08:43 | 56.72760 | 82.25539 | 36997 ft | 441 kts | 335° |
| 2026-04-30 08:43 | 56.75623 | 82.23552 | 37147 ft | 442 kts | 335° |
| 2026-04-30 08:44 | 56.78475 | 82.21567 | 37297 ft | 443 kts | 335° |
| 2026-04-30 08:44 | 56.81328 | 82.19579 | 37583 ft | 441 kts | 335° |
| 2026-04-30 08:44 | 56.84183 | 82.17587 | 37853 ft | 439 kts | 335° |
| 2026-04-30 08:44 | 56.87008 | 82.15612 | 38022 ft | 439 kts | 334° |
| 2026-04-30 08:45 | 56.89843 | 82.13626 | 38140 ft | 440 kts | 335° |
| 2026-04-30 08:45 | 56.95463 | 82.09682 | 38184 ft | 427 kts | 334° |
| 2026-04-30 08:46 | 57.00933 | 82.05686 | 38173 ft | 423 kts | 329° |
| 2026-04-30 08:46 | 57.06016 | 82.00452 | 38177 ft | 422 kts | 326° |
| 2026-04-30 08:47 | 57.11079 | 81.95145 | 38174 ft | 423 kts | 326° |
| 2026-04-30 08:47 | 57.16160 | 81.89806 | 38171 ft | 421 kts | 326° |
| 2026-04-30 08:48 | 57.21223 | 81.84467 | 38164 ft | 420 kts | 326° |
| 2026-04-30 08:48 | 57.26268 | 81.79131 | 38168 ft | 421 kts | 326° |
| 2026-04-30 08:49 | 57.31333 | 81.73755 | 38161 ft | 420 kts | 326° |
| 2026-04-30 08:49 | 57.36389 | 81.68372 | 38164 ft | 421 kts | 326° |
| 2026-04-30 08:50 | 57.41431 | 81.62987 | 38156 ft | 423 kts | 326° |
| 2026-04-30 08:50 | 57.46501 | 81.57554 | 38153 ft | 422 kts | 326° |
| 2026-04-30 08:51 | 57.51564 | 81.52112 | 38151 ft | 420 kts | 326° |
| 2026-04-30 08:51 | 57.56609 | 81.46671 | 38148 ft | 421 kts | 325° |
| 2026-04-30 08:52 | 57.61632 | 81.41237 | 38147 ft | 420 kts | 325° |
| 2026-04-30 08:52 | 57.66670 | 81.35768 | 38144 ft | 420 kts | 325° |
| 2026-04-30 08:53 | 57.71706 | 81.30284 | 38152 ft | 420 kts | 324° |
| 2026-04-30 08:53 | 57.76747 | 81.24777 | 38153 ft | 421 kts | 324° |
| 2026-04-30 08:54 | 57.81745 | 81.19299 | 38143 ft | 420 kts | 324° |
| 2026-04-30 08:54 | 57.86781 | 81.13760 | 38145 ft | 421 kts | 324° |
| 2026-04-30 08:55 | 57.91840 | 81.08180 | 38139 ft | 420 kts | 324° |
| 2026-04-30 08:55 | 57.96852 | 81.02632 | 38136 ft | 420 kts | 324° |
| 2026-04-30 08:56 | 58.01876 | 80.97051 | 38139 ft | 422 kts | 324° |
| 2026-04-30 08:56 | 58.06887 | 80.91469 | 38136 ft | 422 kts | 324° |
| 2026-04-30 08:57 | 58.11923 | 80.85839 | 38135 ft | 422 kts | 324° |
| 2026-04-30 08:57 | 58.16922 | 80.80232 | 38144 ft | 419 kts | 324° |
| 2026-04-30 08:58 | 58.21913 | 80.74616 | 38136 ft | 418 kts | 323° |
| 2026-04-30 08:58 | 58.26935 | 80.68945 | 38138 ft | 418 kts | 323° |
| 2026-04-30 08:59 | 58.31898 | 80.63323 | 38120 ft | 417 kts | 323° |
| 2026-04-30 08:59 | 58.36883 | 80.57658 | 38142 ft | 418 kts | 323° |
| 2026-04-30 09:00 | 58.41883 | 80.51956 | 38129 ft | 420 kts | 323° |
| 2026-04-30 09:00 | 58.46875 | 80.46243 | 38121 ft | 421 kts | 323° |
| 2026-04-30 09:01 | 58.51835 | 80.40550 | 38116 ft | 420 kts | 323° |
| 2026-04-30 09:01 | 58.56803 | 80.34827 | 38110 ft | 419 kts | 322° |
| 2026-04-30 09:02 | 58.64226 | 80.26241 | 38133 ft | 418 kts | 322° |
| 2026-04-30 09:02 | 58.69196 | 80.20468 | 38130 ft | 420 kts | 322° |
| 2026-04-30 09:03 | 58.74170 | 80.14672 | 38110 ft | 418 kts | 322° |
| 2026-04-30 09:03 | 58.79160 | 80.08836 | 38132 ft | 419 kts | 322° |
| 2026-04-30 09:04 | 58.84104 | 80.02996 | 38110 ft | 419 kts | 321° |
| 2026-04-30 09:04 | 58.89028 | 79.97147 | 38121 ft | 419 kts | 321° |
| 2026-04-30 09:05 | 58.93993 | 79.91229 | 38114 ft | 419 kts | 321° |
| 2026-04-30 09:05 | 58.98918 | 79.85340 | 38100 ft | 420 kts | 321° |
| 2026-04-30 09:06 | 59.03879 | 79.79385 | 38083 ft | 420 kts | 321° |
| 2026-04-30 09:06 | 59.08825 | 79.73431 | 38126 ft | 420 kts | 321° |
| 2026-04-30 09:07 | 59.13744 | 79.67489 | 38112 ft | 419 kts | 321° |
| 2026-04-30 09:07 | 59.18690 | 79.61491 | 38087 ft | 418 kts | 321° |
| 2026-04-30 09:08 | 59.23622 | 79.55490 | 38096 ft | 419 kts | 321° |
| 2026-04-30 09:08 | 59.28523 | 79.49509 | 38101 ft | 419 kts | 321° |
| 2026-04-30 09:09 | 59.33458 | 79.43462 | 38075 ft | 420 kts | 321° |
| 2026-04-30 09:09 | 59.38395 | 79.37392 | 38099 ft | 421 kts | 321° |
| 2026-04-30 09:10 | 59.43327 | 79.31310 | 38102 ft | 420 kts | 320° |
| 2026-04-30 09:10 | 59.48212 | 79.25263 | 38125 ft | 419 kts | 320° |
| 2026-04-30 09:11 | 59.53168 | 79.19106 | 38086 ft | 420 kts | 320° |
| 2026-04-30 09:11 | 59.58083 | 79.12981 | 38096 ft | 420 kts | 320° |
| 2026-04-30 09:12 | 59.63007 | 79.06820 | 38091 ft | 421 kts | 320° |
| 2026-04-30 09:12 | 59.67945 | 79.00620 | 38094 ft | 421 kts | 320° |
| 2026-04-30 09:13 | 59.72862 | 78.94426 | 38114 ft | 423 kts | 320° |
| 2026-04-30 09:13 | 59.77781 | 78.88208 | 38107 ft | 422 kts | 320° |
| 2026-04-30 09:14 | 59.82735 | 78.81922 | 38112 ft | 422 kts | 320° |
| 2026-04-30 09:14 | 59.87657 | 78.75655 | 38110 ft | 427 kts | 320° |
| 2026-04-30 09:15 | 59.92621 | 78.69312 | 38091 ft | 424 kts | 320° |
| 2026-04-30 09:15 | 59.97587 | 78.62942 | 38084 ft | 427 kts | 320° |
| 2026-04-30 09:16 | 60.02563 | 78.56538 | 38097 ft | 429 kts | 320° |
| 2026-04-30 09:16 | 60.07546 | 78.50101 | 38105 ft | 428 kts | 320° |
| 2026-04-30 09:17 | 60.12498 | 78.43680 | 38092 ft | 429 kts | 320° |
| 2026-04-30 09:17 | 60.17493 | 78.37182 | 38101 ft | 429 kts | 320° |
| 2026-04-30 09:18 | 60.22394 | 78.30780 | 38118 ft | 429 kts | 319° |
| 2026-04-30 09:18 | 60.27382 | 78.24242 | 38109 ft | 429 kts | 319° |
| 2026-04-30 09:19 | 60.32359 | 78.17693 | 38115 ft | 430 kts | 319° |
| 2026-04-30 09:19 | 60.37331 | 78.11122 | 38116 ft | 430 kts | 319° |
| 2026-04-30 09:20 | 60.42326 | 78.04496 | 38115 ft | 431 kts | 319° |
| 2026-04-30 09:20 | 60.47334 | 77.97827 | 38122 ft | 432 kts | 319° |
| 2026-04-30 09:21 | 60.52328 | 77.91154 | 38110 ft | 429 kts | 319° |
| 2026-04-30 09:21 | 60.57294 | 77.84490 | 38116 ft | 432 kts | 319° |
| 2026-04-30 09:22 | 60.62302 | 77.77745 | 38120 ft | 436 kts | 319° |
| 2026-04-30 09:22 | 60.67338 | 77.70939 | 38113 ft | 436 kts | 319° |
| 2026-04-30 09:23 | 60.72886 | 77.65685 | 38128 ft | 455 kts | 337° |
| 2026-04-30 09:23 | 60.76025 | 77.64425 | 38129 ft | 468 kts | 347° |
| 2026-04-30 09:23 | 60.79274 | 77.63940 | 38133 ft | 470 kts | 348° |
| 2026-04-30 09:24 | 60.85752 | 77.62636 | 38122 ft | 467 kts | 347° |
| 2026-04-30 09:24 | 60.92144 | 77.61224 | 38120 ft | 467 kts | 347° |
| 2026-04-30 09:25 | 60.98597 | 77.59798 | 38129 ft | 470 kts | 346° |
| 2026-04-30 09:25 | 61.05031 | 77.58372 | 38117 ft | 469 kts | 347° |
| 2026-04-30 09:26 | 61.11530 | 77.56925 | 38097 ft | 467 kts | 347° |
| 2026-04-30 09:26 | 61.17939 | 77.55492 | 38110 ft | 469 kts | 347° |
| 2026-04-30 09:27 | 61.24408 | 77.54040 | 38110 ft | 471 kts | 347° |
| 2026-04-30 09:27 | 61.30860 | 77.52586 | 38118 ft | 471 kts | 347° |
| 2026-04-30 09:28 | 61.37335 | 77.51120 | 38095 ft | 470 kts | 347° |
| 2026-04-30 09:28 | 61.43822 | 77.49645 | 38100 ft | 472 kts | 347° |
| 2026-04-30 09:29 | 61.50337 | 77.48159 | 38099 ft | 472 kts | 347° |
| 2026-04-30 09:29 | 61.56788 | 77.46680 | 38109 ft | 473 kts | 347° |
| 2026-04-30 09:30 | 61.63303 | 77.45181 | 38094 ft | 472 kts | 347° |
| 2026-04-30 09:30 | 61.69821 | 77.43678 | 38100 ft | 472 kts | 347° |
| 2026-04-30 09:31 | 61.76290 | 77.42183 | 38092 ft | 473 kts | 347° |
| 2026-04-30 09:31 | 61.82854 | 77.40659 | 38086 ft | 475 kts | 348° |
| 2026-04-30 09:32 | 61.89373 | 77.39141 | 38098 ft | 474 kts | 348° |
| 2026-04-30 09:32 | 61.95902 | 77.37612 | 38088 ft | 473 kts | 348° |
| 2026-04-30 09:33 | 62.02423 | 77.36079 | 38090 ft | 473 kts | 348° |
| 2026-04-30 09:33 | 62.08933 | 77.34542 | 38101 ft | 474 kts | 347° |
| 2026-04-30 09:34 | 62.15468 | 77.32992 | 38091 ft | 473 kts | 347° |
| 2026-04-30 09:34 | 62.22074 | 77.32529 | 38096 ft | 478 kts | 353° |
| 2026-04-30 09:35 | 62.28668 | 77.32206 | 38081 ft | 478 kts | 353° |
| 2026-04-30 09:35 | 62.35267 | 77.31853 | 38081 ft | 478 kts | 353° |
| 2026-04-30 09:36 | 62.41931 | 77.31493 | 38083 ft | 478 kts | 352° |
| 2026-04-30 09:36 | 62.48523 | 77.31135 | 38074 ft | 478 kts | 353° |
| 2026-04-30 09:37 | 62.55130 | 77.30775 | 38079 ft | 479 kts | 353° |
| 2026-04-30 09:37 | 62.61784 | 77.30409 | 38062 ft | 479 kts | 353° |
| 2026-04-30 09:38 | 62.68397 | 77.30046 | 38066 ft | 479 kts | 353° |
| 2026-04-30 09:38 | 62.75059 | 77.29678 | 38070 ft | 479 kts | 353° |
| 2026-04-30 09:39 | 62.81668 | 77.29311 | 38062 ft | 481 kts | 353° |
| 2026-04-30 09:39 | 62.88317 | 77.28940 | 38057 ft | 478 kts | 353° |
| 2026-04-30 09:40 | 62.94957 | 77.28567 | 38054 ft | 481 kts | 353° |
| 2026-04-30 09:40 | 63.01584 | 77.28195 | 38054 ft | 479 kts | 353° |
| 2026-04-30 09:41 | 63.08241 | 77.27818 | 38049 ft | 479 kts | 353° |
| 2026-04-30 09:41 | 63.14882 | 77.27441 | 38048 ft | 481 kts | 353° |
| 2026-04-30 09:42 | 63.21514 | 77.27063 | 38043 ft | 479 kts | 354° |
| 2026-04-30 09:42 | 63.28158 | 77.26681 | 38043 ft | 481 kts | 354° |
| 2026-04-30 09:43 | 63.34847 | 77.26297 | 38042 ft | 482 kts | 354° |
| 2026-04-30 09:43 | 63.41479 | 77.25913 | 38042 ft | 481 kts | 354° |
| 2026-04-30 09:44 | 63.48159 | 77.26874 | 38055 ft | 487 kts | 4° |
| 2026-04-30 09:44 | 63.54847 | 77.29160 | 38037 ft | 488 kts | 4° |
| 2026-04-30 09:45 | 63.61533 | 77.31445 | 38040 ft | 489 kts | 4° |
| 2026-04-30 09:45 | 63.68236 | 77.33746 | 38043 ft | 489 kts | 4° |
| 2026-04-30 09:46 | 63.74961 | 77.36065 | 38039 ft | 489 kts | 4° |
| 2026-04-30 09:46 | 63.81646 | 77.38381 | 38037 ft | 489 kts | 5° |
| 2026-04-30 09:47 | 63.88320 | 77.40705 | 38039 ft | 489 kts | 5° |
| 2026-04-30 09:47 | 63.95025 | 77.43051 | 38035 ft | 489 kts | 5° |
| 2026-04-30 09:48 | 64.01684 | 77.45392 | 38034 ft | 490 kts | 5° |
| 2026-04-30 09:48 | 64.08412 | 77.47770 | 38036 ft | 489 kts | 5° |
| 2026-04-30 09:49 | 64.15086 | 77.50137 | 37833 ft | 492 kts | 5° |
| 2026-04-30 09:49 | 64.18453 | 77.51339 | 37395 ft | 488 kts | 4° |
| 2026-04-30 09:49 | 64.21764 | 77.52522 | 36963 ft | 482 kts | 4° |
| 2026-04-30 09:50 | 64.25019 | 77.53687 | 36545 ft | 477 kts | 4° |
| 2026-04-30 09:50 | 64.28284 | 77.54859 | 36115 ft | 472 kts | 4° |
| 2026-04-30 09:50 | 64.31512 | 77.56020 | 35703 ft | 469 kts | 4° |
| 2026-04-30 09:50 | 64.34689 | 77.57165 | 35288 ft | 467 kts | 4° |
| 2026-04-30 09:51 | 64.37914 | 77.58330 | 34864 ft | 465 kts | 4° |
| 2026-04-30 09:51 | 64.41054 | 77.59469 | 34453 ft | 462 kts | 4° |
| 2026-04-30 09:51 | 64.44207 | 77.60614 | 34046 ft | 460 kts | 4° |
| 2026-04-30 09:51 | 64.47344 | 77.61755 | 33631 ft | 456 kts | 4° |
| 2026-04-30 09:52 | 64.50435 | 77.62884 | 33236 ft | 453 kts | 4° |
| 2026-04-30 09:52 | 64.53527 | 77.64014 | 32884 ft | 451 kts | 4° |
| 2026-04-30 09:52 | 64.56590 | 77.65131 | 32532 ft | 448 kts | 3° |
| 2026-04-30 09:52 | 64.59686 | 77.65588 | 32098 ft | 441 kts | 353° |
| 2026-04-30 09:53 | 64.62647 | 77.64855 | 31672 ft | 430 kts | 343° |
| 2026-04-30 09:53 | 64.65457 | 77.62987 | 31246 ft | 413 kts | 332° |
| 2026-04-30 09:53 | 64.67986 | 77.60083 | 30862 ft | 395 kts | 321° |
| 2026-04-30 09:53 | 64.70227 | 77.56711 | 30508 ft | 385 kts | 320° |
| 2026-04-30 09:54 | 64.72461 | 77.53312 | 30095 ft | 377 kts | 320° |
| 2026-04-30 09:54 | 64.74601 | 77.50052 | 29686 ft | 370 kts | 320° |
| 2026-04-30 09:54 | 64.76746 | 77.46777 | 29275 ft | 367 kts | 320° |
| 2026-04-30 09:54 | 64.78878 | 77.43520 | 28874 ft | 367 kts | 320° |
| 2026-04-30 09:55 | 64.81002 | 77.40270 | 28475 ft | 368 kts | 321° |
| 2026-04-30 09:55 | 64.83148 | 77.36985 | 28050 ft | 368 kts | 321° |
| 2026-04-30 09:55 | 64.85278 | 77.33723 | 27554 ft | 367 kts | 320° |
| 2026-04-30 09:55 | 64.87377 | 77.30504 | 27065 ft | 363 kts | 320° |
| 2026-04-30 09:56 | 64.89480 | 77.27277 | 26578 ft | 360 kts | 320° |
| 2026-04-30 09:56 | 64.91554 | 77.24093 | 26072 ft | 357 kts | 320° |
| 2026-04-30 09:56 | 64.93621 | 77.20915 | 25541 ft | 354 kts | 321° |
| 2026-04-30 09:56 | 64.95660 | 77.17778 | 25008 ft | 351 kts | 321° |
| 2026-04-30 09:57 | 64.97687 | 77.14658 | 24444 ft | 348 kts | 321° |
| 2026-04-30 09:57 | 64.99682 | 77.11584 | 23869 ft | 345 kts | 321° |
| 2026-04-30 09:57 | 65.01707 | 77.08669 | 23283 ft | 346 kts | 330° |
| 2026-04-30 09:57 | 65.03999 | 77.06957 | 22714 ft | 349 kts | 345° |
| 2026-04-30 09:58 | 65.06387 | 77.06112 | 22142 ft | 349 kts | 349° |
| 2026-04-30 09:58 | 65.08804 | 77.05586 | 21556 ft | 347 kts | 351° |
| 2026-04-30 09:58 | 65.11192 | 77.05194 | 20970 ft | 344 kts | 352° |
| 2026-04-30 09:58 | 65.13555 | 77.04853 | 20383 ft | 341 kts | 352° |
| 2026-04-30 09:59 | 65.18220 | 77.04222 | 19227 ft | 334 kts | 352° |
| 2026-04-30 09:59 | 65.22775 | 77.03617 | 18102 ft | 327 kts | 352° |
| 2026-04-30 10:00 | 65.27241 | 77.03024 | 17012 ft | 321 kts | 352° |
| 2026-04-30 10:00 | 65.29457 | 77.02729 | 16472 ft | 318 kts | 353° |
| 2026-04-30 10:01 | 65.33793 | 77.02151 | 15420 ft | 311 kts | 353° |
| 2026-04-30 10:01 | 65.35948 | 77.01862 | 14782 ft | 311 kts | 353° |
| 2026-04-30 10:01 | 65.38097 | 77.01574 | 14139 ft | 311 kts | 353° |
| 2026-04-30 10:02 | 65.42351 | 77.01002 | 12880 ft | 308 kts | 353° |
| 2026-04-30 10:02 | 65.44488 | 77.00716 | 12231 ft | 306 kts | 354° |
| 2026-04-30 10:02 | 65.46587 | 77.00433 | 11594 ft | 304 kts | 354° |
| 2026-04-30 10:02 | 65.48682 | 77.00150 | 10961 ft | 303 kts | 354° |
| 2026-04-30 10:03 | 65.50777 | 76.99867 | 10327 ft | 301 kts | 354° |
| 2026-04-30 10:03 | 65.52839 | 76.99587 | 9712 ft | 299 kts | 354° |
| 2026-04-30 10:03 | 65.54884 | 76.99310 | 9292 ft | 290 kts | 354° |
| 2026-04-30 10:03 | 65.56833 | 76.99046 | 8878 ft | 282 kts | 354° |
| 2026-04-30 10:04 | 65.58776 | 76.98782 | 8473 ft | 275 kts | 354° |
| 2026-04-30 10:04 | 65.60661 | 76.98525 | 8083 ft | 270 kts | 354° |
| 2026-04-30 10:04 | 65.62506 | 76.98272 | 7711 ft | 268 kts | 354° |
| 2026-04-30 10:04 | 65.64361 | 76.98018 | 7336 ft | 268 kts | 354° |
| 2026-04-30 10:05 | 65.66139 | 76.97145 | 6966 ft | 261 kts | 328° |
| 2026-04-30 10:05 | 65.67492 | 76.94415 | 6751 ft | 252 kts | 311° |
| 2026-04-30 10:05 | 65.68686 | 76.91432 | 6505 ft | 242 kts | 310° |
| 2026-04-30 10:05 | 65.69823 | 76.88538 | 6261 ft | 233 kts | 310° |
| 2026-04-30 10:06 | 65.70917 | 76.85725 | 6036 ft | 230 kts | 310° |
| 2026-04-30 10:06 | 65.72012 | 76.82892 | 5823 ft | 230 kts | 310° |
| 2026-04-30 10:06 | 65.73099 | 76.80069 | 5617 ft | 230 kts | 310° |
| 2026-04-30 10:06 | 65.74193 | 76.77225 | 5402 ft | 230 kts | 310° |
| 2026-04-30 10:07 | 65.75285 | 76.74376 | 5190 ft | 230 kts | 310° |
| 2026-04-30 10:07 | 65.76382 | 76.71515 | 4974 ft | 229 kts | 310° |
| 2026-04-30 10:07 | 65.77447 | 76.68728 | 4762 ft | 228 kts | 310° |
| 2026-04-30 10:07 | 65.78568 | 76.65788 | 4575 ft | 242 kts | 310° |
| 2026-04-30 10:08 | 65.79721 | 76.62765 | 4366 ft | 247 kts | 310° |
| 2026-04-30 10:08 | 65.80894 | 76.59687 | 4143 ft | 247 kts | 310° |
| 2026-04-30 10:08 | 65.82045 | 76.56660 | 3914 ft | 247 kts | 310° |
| 2026-04-30 10:08 | 65.83213 | 76.53585 | 3680 ft | 245 kts | 310° |
| 2026-04-30 10:09 | 65.84360 | 76.50561 | 3456 ft | 244 kts | 310° |
| 2026-04-30 10:09 | 65.85520 | 76.47497 | 3227 ft | 244 kts | 310° |
| 2026-04-30 10:09 | 65.86649 | 76.44508 | 3003 ft | 243 kts | 310° |
| 2026-04-30 10:09 | 65.87803 | 76.41454 | 2776 ft | 242 kts | 310° |
| 2026-04-30 10:10 | 65.88940 | 76.38436 | 2552 ft | 241 kts | 310° |
| 2026-04-30 10:10 | 65.90059 | 76.35465 | 2327 ft | 240 kts | 310° |
| 2026-04-30 10:10 | 65.91193 | 76.32448 | 2112 ft | 239 kts | 309° |
| 2026-04-30 10:10 | 65.92293 | 76.29521 | 2061 ft | 230 kts | 309° |
| 2026-04-30 10:11 | 65.93362 | 76.26670 | 2064 ft | 227 kts | 309° |
| 2026-04-30 10:11 | 65.94424 | 76.23830 | 2057 ft | 223 kts | 309° |
| 2026-04-30 10:11 | 65.95462 | 76.21056 | 2059 ft | 219 kts | 309° |
| 2026-04-30 10:11 | 65.96481 | 76.18326 | 2057 ft | 219 kts | 309° |
| 2026-04-30 10:12 | 65.97505 | 76.15579 | 2063 ft | 219 kts | 309° |
| 2026-04-30 10:12 | 65.98533 | 76.12819 | 2064 ft | 220 kts | 309° |
| 2026-04-30 10:12 | 65.99555 | 76.10071 | 2059 ft | 220 kts | 309° |
| 2026-04-30 10:12 | 66.00590 | 76.07285 | 2084 ft | 219 kts | 309° |
| 2026-04-30 10:13 | 66.01610 | 76.04538 | 2078 ft | 219 kts | 309° |
| 2026-04-30 10:13 | 66.02723 | 76.02044 | 2046 ft | 224 kts | 331° |
| 2026-04-30 10:13 | 66.04265 | 76.01647 | 2075 ft | 233 kts | 11° |
| 2026-04-30 10:13 | 66.05821 | 76.02805 | 2074 ft | 233 kts | 15° |
| 2026-04-30 10:14 | 66.07342 | 76.03996 | 2053 ft | 225 kts | 15° |
| 2026-04-30 10:14 | 66.08803 | 76.05141 | 2046 ft | 212 kts | 15° |
| 2026-04-30 10:14 | 66.11501 | 76.07826 | 2038 ft | 216 kts | 44° |
| 2026-04-30 10:15 | 66.12094 | 76.11031 | 2046 ft | 204 kts | 89° |
| 2026-04-30 10:15 | 66.11834 | 76.14335 | 2266 ft | 193 kts | 110° |
| 2026-04-30 10:15 | 66.11431 | 76.17432 | 2399 ft | 185 kts | 110° |
| 2026-04-30 10:15 | 66.11056 | 76.20412 | 2369 ft | 174 kts | 110° |
| 2026-04-30 10:16 | 66.10712 | 76.23125 | 2315 ft | 161 kts | 111° |
| 2026-04-30 10:16 | 66.10375 | 76.25767 | 2250 ft | 161 kts | 111° |
| 2026-04-30 10:16 | 66.10040 | 76.28375 | 2054 ft | 160 kts | 111° |
| 2026-04-30 10:17 | 66.09379 | 76.33543 | 1611 ft | 157 kts | 111° |
| 2026-04-30 10:17 | 66.08731 | 76.38576 | 1156 ft | 149 kts | 110° |
| 2026-04-30 10:17 | 66.08429 | 76.40926 | 965 ft | 145 kts | 110° |
| 2026-04-30 10:18 | 66.08128 | 76.43236 | 759 ft | 139 kts | 110° |
| 2026-04-30 10:18 | 66.07840 | 76.45490 | 573 ft | 136 kts | 110° |
| 2026-04-30 10:18 | 66.07553 | 76.47697 | 408 ft | 134 kts | 109° |
| 2026-04-30 10:19 | 66.07010 | 76.51957 | 1256 ft | 144 kts | 112° |
| 2026-04-30 10:19 | 66.06677 | 76.54253 | 1758 ft | 142 kts | 114° |
| 2026-04-30 10:19 | 66.06351 | 76.56514 | 2225 ft | 144 kts | 114° |
| 2026-04-30 10:19 | 66.05981 | 76.58977 | 2510 ft | 161 kts | 114° |
| 2026-04-30 10:20 | 66.05582 | 76.61639 | 2835 ft | 172 kts | 113° |
| 2026-04-30 10:20 | 66.04719 | 76.67432 | 3078 ft | 184 kts | 114° |
| 2026-04-30 10:20 | 66.04281 | 76.70358 | 3079 ft | 183 kts | 114° |
| 2026-04-30 10:21 | 66.03807 | 76.73265 | 3079 ft | 182 kts | 116° |
| 2026-04-30 10:21 | 66.03296 | 76.76125 | 3081 ft | 181 kts | 118° |
| 2026-04-30 10:21 | 66.02767 | 76.78921 | 3081 ft | 181 kts | 120° |
| 2026-04-30 10:21 | 66.02195 | 76.81695 | 3081 ft | 181 kts | 122° |
| 2026-04-30 10:22 | 66.01386 | 76.84003 | 3087 ft | 177 kts | 140° |
| 2026-04-30 10:22 | 66.00501 | 76.86113 | 3078 ft | 178 kts | 140° |
| 2026-04-30 10:22 | 65.99616 | 76.88184 | 3068 ft | 177 kts | 144° |
| 2026-04-30 10:22 | 65.98552 | 76.89622 | 3068 ft | 178 kts | 168° |
| 2026-04-30 10:23 | 65.97364 | 76.90087 | 3047 ft | 170 kts | 188° |
| 2026-04-30 10:23 | 65.96345 | 76.88878 | 3073 ft | 163 kts | 219° |
| 2026-04-30 10:23 | 65.95437 | 76.87238 | 3063 ft | 163 kts | 218° |
| 2026-04-30 10:23 | 65.94520 | 76.85597 | 3062 ft | 163 kts | 218° |
| 2026-04-30 10:24 | 65.93593 | 76.83999 | 3057 ft | 164 kts | 213° |
| 2026-04-30 10:24 | 65.92627 | 76.82574 | 3036 ft | 162 kts | 227° |
| 2026-04-30 10:24 | 65.92240 | 76.80026 | 3065 ft | 162 kts | 264° |
| 2026-04-30 10:24 | 65.92403 | 76.77293 | 3063 ft | 165 kts | 282° |
| 2026-04-30 10:25 | 65.92694 | 76.74565 | 3061 ft | 167 kts | 282° |
| 2026-04-30 10:25 | 65.92986 | 76.71819 | 3052 ft | 162 kts | 282° |
| 2026-04-30 10:25 | 65.93280 | 76.69075 | 2952 ft | 168 kts | 282° |
| 2026-04-30 10:25 | 65.93568 | 76.66386 | 2767 ft | 158 kts | 282° |
| 2026-04-30 10:26 | 65.93844 | 76.63853 | 2584 ft | 153 kts | 282° |
| 2026-04-30 10:26 | 65.94122 | 76.61320 | 2424 ft | 152 kts | 282° |
| 2026-04-30 10:26 | 65.94395 | 76.58845 | 2277 ft | 152 kts | 283° |
| 2026-04-30 10:26 | 65.94706 | 76.56355 | 2130 ft | 153 kts | 285° |
| 2026-04-30 10:27 | 65.95036 | 76.53909 | 2057 ft | 152 kts | 287° |
| 2026-04-30 10:27 | 65.95422 | 76.51468 | 2054 ft | 153 kts | 288° |
| 2026-04-30 10:27 | 65.95801 | 76.49062 | 2048 ft | 153 kts | 287° |
| 2026-04-30 10:27 | 65.96120 | 76.46577 | 2045 ft | 153 kts | 284° |
| 2026-04-30 10:28 | 65.96435 | 76.44102 | 2048 ft | 152 kts | 285° |
| 2026-04-30 10:28 | 65.96753 | 76.41608 | 2041 ft | 152 kts | 284° |
| 2026-04-30 10:28 | 65.97066 | 76.39171 | 2044 ft | 151 kts | 284° |
| 2026-04-30 10:28 | 65.97387 | 76.36681 | 2046 ft | 151 kts | 284° |
| 2026-04-30 10:29 | 65.97706 | 76.34217 | 2044 ft | 151 kts | 284° |
| 2026-04-30 10:29 | 65.98020 | 76.31778 | 2051 ft | 151 kts | 284° |
| 2026-04-30 10:29 | 65.98344 | 76.29297 | 2048 ft | 150 kts | 284° |
| 2026-04-30 10:29 | 65.98666 | 76.26848 | 2055 ft | 151 kts | 284° |
| 2026-04-30 10:30 | 65.98988 | 76.24407 | 2054 ft | 151 kts | 284° |
| 2026-04-30 10:30 | 65.99310 | 76.21970 | 2059 ft | 151 kts | 284° |
| 2026-04-30 10:30 | 65.99634 | 76.19508 | 2063 ft | 152 kts | 284° |
| 2026-04-30 10:30 | 65.99957 | 76.17047 | 2056 ft | 153 kts | 284° |
| 2026-04-30 10:31 | 66.00280 | 76.14564 | 2055 ft | 152 kts | 284° |
| 2026-04-30 10:31 | 66.00601 | 76.12091 | 2057 ft | 152 kts | 284° |
| 2026-04-30 10:31 | 66.00933 | 76.09628 | 2058 ft | 152 kts | 285° |
| 2026-04-30 10:31 | 66.01399 | 76.07295 | 2036 ft | 156 kts | 309° |
| 2026-04-30 10:32 | 66.02196 | 76.05483 | 2065 ft | 156 kts | 314° |
| 2026-04-30 10:32 | 66.03017 | 76.03736 | 2055 ft | 157 kts | 320° |
| 2026-04-30 10:32 | 66.04082 | 76.03065 | 2055 ft | 167 kts | 359° |
| 2026-04-30 10:32 | 66.05234 | 76.03529 | 2072 ft | 169 kts | 5° |
| 2026-04-30 10:33 | 66.06381 | 76.04047 | 2058 ft | 169 kts | 7° |
| 2026-04-30 10:33 | 66.07531 | 76.04778 | 2054 ft | 170 kts | 11° |
| 2026-04-30 10:33 | 66.08668 | 76.05532 | 2057 ft | 170 kts | 11° |
| 2026-04-30 10:33 | 66.09819 | 76.06295 | 2051 ft | 172 kts | 11° |
| 2026-04-30 10:34 | 66.10918 | 76.07375 | 2034 ft | 175 kts | 32° |
| 2026-04-30 10:34 | 66.11737 | 76.09596 | 2062 ft | 176 kts | 58° |
| 2026-04-30 10:34 | 66.12007 | 76.12420 | 2044 ft | 172 kts | 100° |
| 2026-04-30 10:34 | 66.11704 | 76.15225 | 2063 ft | 167 kts | 110° |
| 2026-04-30 10:35 | 66.11375 | 76.17873 | 2061 ft | 156 kts | 110° |
| 2026-04-30 10:35 | 66.11047 | 76.20468 | 2047 ft | 157 kts | 110° |
| 2026-04-30 10:35 | 66.10724 | 76.22998 | 2055 ft | 156 kts | 111° |
| 2026-04-30 10:35 | 66.10406 | 76.25513 | 2034 ft | 149 kts | 110° |
| 2026-04-30 10:36 | 66.10098 | 76.27928 | 2041 ft | 149 kts | 111° |
| 2026-04-30 10:36 | 66.09791 | 76.30306 | 1853 ft | 145 kts | 111° |
| 2026-04-30 10:36 | 66.09494 | 76.32649 | 1677 ft | 143 kts | 111° |
| 2026-04-30 10:36 | 66.09198 | 76.34952 | 1480 ft | 141 kts | 111° |
| 2026-04-30 10:37 | 66.08901 | 76.37260 | 1284 ft | 141 kts | 110° |
| 2026-04-30 10:37 | 66.08604 | 76.39542 | 1091 ft | 139 kts | 110° |
| 2026-04-30 10:37 | 66.08316 | 76.41801 | 895 ft | 137 kts | 110° |
| 2026-04-30 10:37 | 66.08030 | 76.44011 | 706 ft | 136 kts | 109° |
| 2026-04-30 10:38 | 66.07745 | 76.46210 | 516 ft | 135 kts | 109° |
| 2026-04-30 10:38 | 66.07463 | 76.48396 | 325 ft | 134 kts | 109° |
| 2026-04-30 10:38 | 66.07193 | 76.50563 | 365 ft | 131 kts | 107° |
| 2026-04-30 10:38 | 66.06978 | 76.52688 | 924 ft | 120 kts | 105° |
| 2026-04-30 10:39 | 66.06780 | 76.54738 | 1233 ft | 135 kts | 107° |
| 2026-04-30 10:39 | 66.06527 | 76.56923 | 1686 ft | 133 kts | 109° |
| 2026-04-30 10:39 | 66.06320 | 76.59152 | 2105 ft | 137 kts | 105° |
| 2026-04-30 10:39 | 66.06103 | 76.61443 | 2546 ft | 139 kts | 113° |
| 2026-04-30 10:40 | 66.05728 | 76.63632 | 2974 ft | 141 kts | 117° |
| 2026-04-30 10:40 | 66.05301 | 76.65995 | 3085 ft | 165 kts | 118° |
| 2026-04-30 10:40 | 66.04797 | 76.68746 | 3097 ft | 183 kts | 118° |
| 2026-04-30 10:40 | 66.04276 | 76.71565 | 3071 ft | 184 kts | 118° |
| 2026-04-30 10:41 | 66.03746 | 76.74432 | 3061 ft | 182 kts | 118° |
| 2026-04-30 10:41 | 66.03223 | 76.77260 | 3061 ft | 183 kts | 118° |
| 2026-04-30 10:41 | 66.02451 | 76.79613 | 3037 ft | 175 kts | 153° |
| 2026-04-30 10:41 | 66.01355 | 76.80804 | 3076 ft | 174 kts | 161° |
| 2026-04-30 10:42 | 66.00220 | 76.81963 | 3062 ft | 175 kts | 161° |
| 2026-04-30 10:42 | 65.99079 | 76.82947 | 3059 ft | 172 kts | 172° |
| 2026-04-30 10:42 | 65.97916 | 76.83422 | 3060 ft | 170 kts | 180° |
| 2026-04-30 10:42 | 65.96729 | 76.83512 | 3066 ft | 169 kts | 182° |
| 2026-04-30 10:43 | 65.95608 | 76.83080 | 3059 ft | 165 kts | 202° |
| 2026-04-30 10:43 | 65.94768 | 76.81275 | 3049 ft | 162 kts | 244° |
| 2026-04-30 10:43 | 65.94359 | 76.78714 | 3077 ft | 162 kts | 249° |
| 2026-04-30 10:43 | 65.94106 | 76.76067 | 3035 ft | 163 kts | 274° |
| 2026-04-30 10:44 | 65.94411 | 76.73370 | 3076 ft | 165 kts | 285° |
| 2026-04-30 10:44 | 65.94801 | 76.70744 | 3061 ft | 165 kts | 288° |
| 2026-04-30 10:44 | 65.95206 | 76.68065 | 3065 ft | 166 kts | 288° |
| 2026-04-30 10:44 | 65.95603 | 76.65434 | 3061 ft | 166 kts | 288° |
| 2026-04-30 10:45 | 65.96003 | 76.62777 | 3061 ft | 165 kts | 288° |
| 2026-04-30 10:45 | 65.96398 | 76.60159 | 3062 ft | 165 kts | 288° |
| 2026-04-30 10:45 | 65.96796 | 76.57518 | 3064 ft | 165 kts | 288° |
| 2026-04-30 10:45 | 65.97190 | 76.54896 | 3062 ft | 164 kts | 288° |
| 2026-04-30 10:46 | 65.97589 | 76.52255 | 3059 ft | 165 kts | 288° |
| 2026-04-30 10:46 | 65.97988 | 76.49610 | 3057 ft | 165 kts | 288° |
| 2026-04-30 10:46 | 65.98391 | 76.46950 | 3056 ft | 166 kts | 288° |
| 2026-04-30 10:46 | 65.98791 | 76.44326 | 3057 ft | 165 kts | 288° |
| 2026-04-30 10:47 | 65.99196 | 76.41685 | 3056 ft | 166 kts | 288° |
| 2026-04-30 10:47 | 65.99602 | 76.39050 | 3055 ft | 166 kts | 288° |
| 2026-04-30 10:47 | 66.00010 | 76.36394 | 3055 ft | 165 kts | 288° |
| 2026-04-30 10:47 | 66.00413 | 76.33751 | 3055 ft | 165 kts | 287° |
| 2026-04-30 10:48 | 66.00684 | 76.31626 | 3048 ft | 164 kts | 283° |
| 2026-04-30 10:48 | 66.01002 | 76.28941 | 2876 ft | 165 kts | 283° |
| 2026-04-30 10:48 | 66.01324 | 76.26249 | 2703 ft | 163 kts | 283° |
| 2026-04-30 10:48 | 66.01643 | 76.23614 | 2534 ft | 162 kts | 284° |
| 2026-04-30 10:49 | 66.01965 | 76.20974 | 2368 ft | 161 kts | 284° |
| 2026-04-30 10:49 | 66.02293 | 76.18324 | 2204 ft | 161 kts | 284° |
| 2026-04-30 10:49 | 66.02615 | 76.15727 | 2068 ft | 159 kts | 284° |
| 2026-04-30 10:49 | 66.02898 | 76.13116 | 2060 ft | 159 kts | 277° |
| 2026-04-30 10:50 | 66.03079 | 76.10413 | 2061 ft | 159 kts | 277° |
| 2026-04-30 10:50 | 66.03258 | 76.07734 | 2057 ft | 159 kts | 277° |
| 2026-04-30 10:50 | 66.03442 | 76.05057 | 2058 ft | 158 kts | 279° |
| 2026-04-30 10:50 | 66.04064 | 76.02853 | 2039 ft | 167 kts | 323° |
| 2026-04-30 10:51 | 66.05217 | 76.02271 | 2067 ft | 177 kts | 356° |
| 2026-04-30 10:51 | 66.06450 | 76.02441 | 2051 ft | 180 kts | 8° |
| 2026-04-30 10:51 | 66.07552 | 76.03786 | 2049 ft | 172 kts | 26° |
| 2026-04-30 10:51 | 66.08609 | 76.05128 | 2045 ft | 168 kts | 24° |
| 2026-04-30 10:52 | 66.09646 | 76.06436 | 2054 ft | 168 kts | 24° |
| 2026-04-30 10:52 | 66.10684 | 76.07776 | 2051 ft | 170 kts | 30° |
| 2026-04-30 10:52 | 66.11385 | 76.10088 | 2054 ft | 173 kts | 75° |
| 2026-04-30 10:52 | 66.11356 | 76.12989 | 2073 ft | 167 kts | 99° |
| 2026-04-30 10:53 | 66.11329 | 76.15881 | 2061 ft | 167 kts | 97° |
| 2026-04-30 10:53 | 66.11156 | 76.18668 | 2059 ft | 166 kts | 104° |
| 2026-04-30 10:53 | 66.10884 | 76.21425 | 2052 ft | 164 kts | 108° |
| 2026-04-30 10:53 | 66.10577 | 76.24063 | 2047 ft | 159 kts | 109° |
| 2026-04-30 10:54 | 66.10255 | 76.26675 | 2063 ft | 159 kts | 110° |
| 2026-04-30 10:54 | 66.09925 | 76.29271 | 1951 ft | 155 kts | 110° |
| 2026-04-30 10:54 | 66.09633 | 76.31564 | 1775 ft | 150 kts | 111° |
| 2026-04-30 10:55 | 66.09383 | 76.33521 | 1608 ft | 149 kts | 110° |
| 2026-04-30 10:55 | 66.09072 | 76.35932 | 1401 ft | 147 kts | 110° |
| 2026-04-30 10:55 | 66.08800 | 76.38035 | 1216 ft | 145 kts | 110° |
| 2026-04-30 10:55 | 66.08759 | 76.38356 | 1188 ft | 145 kts | 110° |
| 2026-04-30 10:56 | 66.08458 | 76.40706 | 990 ft | 143 kts | 110° |
| 2026-04-30 10:56 | 66.08160 | 76.43006 | 787 ft | 138 kts | 110° |
| 2026-04-30 10:56 | 66.07875 | 76.45187 | 589 ft | 131 kts | 110° |
| 2026-04-30 10:56 | 66.07597 | 76.47272 | 390 ft | 127 kts | 110° |
| 2026-04-30 10:57 | 66.07330 | 76.49410 | 241 ft | 128 kts | 108° |
| 2026-04-30 10:57 | 66.07096 | 76.51269 | 196 ft | 92 kts | 109° |
| 2026-04-30 10:57 | 66.07006 | 76.52063 | 191 ft | 17 kts | 48° |
| 2026-04-30 10:57 | 66.07027 | 76.52078 | 190 ft | 4 kts | 3° |
| 2026-04-30 10:58 | 66.07079 | 76.52110 | 189 ft | 10 kts | 18° |
| 2026-04-30 10:58 | 66.07105 | 76.52132 | 189 ft | 0 kts | 18° |
| 2026-04-30 10:58 | 66.07110 | 76.52136 | 189 ft | 2 kts | 18° |
| 2026-04-30 10:59 | 66.07132 | 76.52160 | 189 ft | 4 kts | 41° |
| 2026-04-30 10:59 | 66.07135 | 76.52273 | 189 ft | 9 kts | 108° |
| 2026-04-30 10:59 | 66.07113 | 76.52444 | 189 ft | 5 kts | 97° |
| 2026-04-30 10:59 | 66.07133 | 76.52520 | 189 ft | 6 kts | 28° |
| 2026-04-30 11:00 | 66.07169 | 76.52550 | 188 ft | 0 kts | 17° |
| 2026-04-30 11:00 | 66.07175 | 76.52554 | 188 ft | 2 kts | 17° |
| 2026-04-30 11:00 | 66.07181 | 76.52559 | 188 ft | 0 kts | 16° |